createdAt,value
2022-09-07T00:10:22.361Z,56.08
2022-09-07T00:40:25.492Z,56.68
2022-09-07T01:10:29.482Z,57.31
2022-09-07T01:40:32.900Z,58.08
2022-09-07T02:10:36.057Z,58.36
2022-09-07T02:40:39.202Z,58.83
2022-09-07T03:10:42.680Z,59.33
2022-09-07T03:40:45.429Z,59.68
2022-09-07T04:10:49.139Z,60.20
2022-09-07T04:40:51.846Z,61.43
2022-09-07T05:10:55.862Z,61.39
2022-09-07T05:40:58.812Z,61.35
2022-09-07T06:11:02.121Z,61.51
2022-09-07T07:11:28.246Z,58.40
2022-09-07T08:11:54.476Z,53.66
2022-09-07T08:41:57.189Z,51.14
2022-09-07T09:12:00.725Z,47.37
2022-09-07T09:42:03.839Z,45.72
2022-09-07T10:12:08.414Z,41.55
2022-09-07T10:42:11.590Z,41.15
2022-09-07T11:12:15.361Z,39.58
2022-09-07T12:12:41.848Z,36.67
2022-09-07T12:42:44.692Z,36.41
2022-09-07T13:43:31.011Z,37.35
2022-09-07T14:13:34.525Z,37.78
2022-09-07T14:43:37.202Z,38.13
2022-09-07T15:13:41.034Z,38.42
2022-09-07T15:43:43.754Z,39.20
2022-09-07T16:13:48.142Z,39.45
2022-09-07T16:43:50.999Z,40.14
2022-09-07T17:13:54.897Z,40.85
2022-09-07T17:43:57.747Z,41.44
2022-09-07T18:14:01.873Z,42.64
2022-09-07T18:44:04.667Z,43.55
2022-09-07T19:14:08.183Z,43.88
2022-09-07T19:44:10.892Z,44.41
2022-09-07T20:14:14.744Z,44.77
2022-09-07T20:44:17.474Z,45.07
2022-09-07T21:14:20.760Z,45.60
2022-09-07T21:44:23.788Z,46.32
2022-09-07T22:14:26.847Z,47.01
2022-09-07T22:44:29.562Z,47.89
2022-09-07T23:14:33.538Z,48.10
2022-09-07T23:44:36.310Z,48.51
